Time;durP1;ratioP1;P1;durP2;ratioP2;P2;SDS_P1;SDS_P2;PMS_P1;PMS_P2;Temp;Humidity;BMP_temperature;BMP_pressure;BME280_temperature;BME280_humidity;BME280_pressure;Samples;Min_cycle;Max_cycle;Signal;HPM_P1;HPM_P2
2021/07/06 00:00:32;;;;;;;2.20;1.67;;;;;;;;;;5077329;28;20861;-84
2021/07/06 00:02:59;;;;;;;5.63;2.30;;;;;;;;;;5076840;28;20441;-84
2021/07/06 00:05:25;;;;;;;2.30;1.70;;;;;;;;;;5061052;28;20445;-81
2021/07/06 00:07:51;;;;;;;2.30;1.67;;;;;;;;;;5092578;28;20901;-81
2021/07/06 00:10:19;;;;;;;3.37;2.13;;;;;;;;;;5101428;28;20396;-84
2021/07/06 00:12:46;;;;;;;3.00;1.60;;;;;;;;;;5096880;28;20480;-84
2021/07/06 00:15:13;;;;;;;4.13;1.90;;;;;;;;;;5098775;28;20418;-83
2021/07/06 00:17:39;;;;;;;2.67;1.73;;;;;;;;;;5097004;28;20406;-82
2021/07/06 00:20:09;;;;;;;3.83;2.27;;;;;;;;;;5098490;28;20439;-84
2021/07/06 00:22:36;;;;;;;10.00;1.77;;;;;;;;;;5098412;28;20431;-84
2021/07/06 00:25:02;;;;;;;3.77;2.43;;;;;;;;;;5077692;28;20811;-84
2021/07/06 00:27:28;;;;;;;2.77;1.90;;;;;;;;;;5078250;28;20457;-84
2021/07/06 00:29:54;;;;;;;4.10;1.70;;;;;;;;;;5094402;28;20447;-84
2021/07/06 00:32:20;;;;;;;4.63;2.37;;;;;;;;;;5116718;28;20430;-84
2021/07/06 00:34:46;;;;;;;3.20;2.00;;;;;;;;;;5070974;28;20517;-84
2021/07/06 00:37:12;;;;;;;3.97;1.87;;;;;;;;;;5074542;28;20798;-82
2021/07/06 00:39:38;;;;;;;5.03;1.60;;;;;;;;;;5084085;28;20512;-83
2021/07/06 00:42:08;;;;;;;2.60;2.00;;;;;;;;;;5094584;28;20400;-81
2021/07/06 00:44:34;;;;;;;2.57;1.70;;;;;;;;;;5092678;28;20444;-81
2021/07/06 00:47:00;;;;;;;3.23;1.67;;;;;;;;;;5093586;28;20431;-83
2021/07/06 00:49:26;;;;;;;2.03;1.70;;;;;;;;;;5093232;28;20447;-81
2021/07/06 00:51:52;;;;;;;2.20;1.70;;;;;;;;;;5077552;28;20491;-81
2021/07/06 00:54:18;;;;;;;3.13;1.53;;;;;;;;;;5092311;28;20607;-81
2021/07/06 00:56:44;;;;;;;2.63;1.90;;;;;;;;;;5094671;28;20409;-81
2021/07/06 00:59:11;;;;;;;3.43;1.67;;;;;;;;;;5086315;28;20437;-82
2021/07/06 01:01:37;;;;;;;2.73;2.00;;;;;;;;;;5074732;28;20443;-81
2021/07/06 01:04:04;;;;;;;5.20;2.03;;;;;;;;;;5078846;28;20439;-81
2021/07/06 01:06:30;;;;;;;2.90;2.00;;;;;;;;;;5095238;28;20551;-80
2021/07/06 01:08:56;;;;;;;4.50;1.90;;;;;;;;;;5091813;28;20425;-83
2021/07/06 01:11:22;;;;;;;3.00;1.90;;;;;;;;;;5078986;28;20389;-82
2021/07/06 01:13:48;;;;;;;2.37;1.60;;;;;;;;;;5080127;28;20440;-82
2021/07/06 01:16:14;;;;;;;2.70;1.63;;;;;;;;;;5100047;28;20412;-82
2021/07/06 01:18:40;;;;;;;2.43;2.17;;;;;;;;;;5079517;28;20408;-82
2021/07/06 01:21:06;;;;;;;6.43;1.90;;;;;;;;;;5081969;28;20408;-85
2021/07/06 01:23:33;;;;;;;3.27;1.80;;;;;;;;;;5080165;28;20432;-84
2021/07/06 01:26:00;;;;;;;1.90;1.47;;;;;;;;;;5059373;28;20962;-83
2021/07/06 01:28:26;;;;;;;6.70;1.93;;;;;;;;;;5059529;28;20409;-84
2021/07/06 01:30:54;;;;;;;2.17;1.67;;;;;;;;;;5098792;28;20428;-84
2021/07/06 01:33:23;;;;;;;3.17;2.13;;;;;;;;;;5074030;28;20444;-84
2021/07/06 01:35:50;;;;;;;7.90;2.40;;;;;;;;;;5075998;28;20453;-83
2021/07/06 01:38:16;;;;;;;6.53;1.87;;;;;;;;;;5080268;28;20436;-83
2021/07/06 01:40:42;;;;;;;5.43;2.13;;;;;;;;;;5092617;28;20488;-82
2021/07/06 01:43:08;;;;;;;3.50;2.20;;;;;;;;;;5098657;28;20959;-84
2021/07/06 01:45:34;;;;;;;2.90;2.10;;;;;;;;;;5083842;28;20544;-84
2021/07/06 01:48:01;;;;;;;3.17;1.97;;;;;;;;;;5080283;28;20716;-83
2021/07/06 01:50:31;;;;;;;2.40;1.77;;;;;;;;;;5078183;28;20417;-84
2021/07/06 01:52:58;;;;;;;2.40;1.73;;;;;;;;;;5080751;28;20421;-84
2021/07/06 01:55:25;;;;;;;6.07;2.10;;;;;;;;;;5078865;28;20485;-84
2021/07/06 01:57:54;;;;;;;10.10;2.20;;;;;;;;;;5080019;28;20484;-84
2021/07/06 02:00:21;;;;;;;3.80;2.13;;;;;;;;;;5077881;28;20432;-84
2021/07/06 02:02:47;;;;;;;2.53;1.70;;;;;;;;;;5078327;28;20487;-84
2021/07/06 02:05:19;;;;;;;3.10;2.00;;;;;;;;;;5081187;28;20461;-84
2021/07/06 02:07:45;;;;;;;4.90;1.83;;;;;;;;;;5099861;28;20408;-83
2021/07/06 02:10:12;;;;;;;2.53;1.90;;;;;;;;;;5098532;28;20439;-84
2021/07/06 02:12:38;;;;;;;2.20;1.70;;;;;;;;;;5099782;28;20423;-84
2021/07/06 02:15:06;;;;;;;4.03;2.10;;;;;;;;;;5077424;28;20446;-83
2021/07/06 02:17:32;;;;;;;2.90;2.03;;;;;;;;;;5100098;28;20428;-84
2021/07/06 02:19:58;;;;;;;2.30;1.70;;;;;;;;;;5097184;28;20907;-84
2021/07/06 02:22:24;;;;;;;2.77;1.90;;;;;;;;;;5060402;28;20410;-83
2021/07/06 02:24:50;;;;;;;2.77;1.70;;;;;;;;;;5060107;28;20488;-83
2021/07/06 02:27:16;;;;;;;5.47;1.90;;;;;;;;;;5078115;28;20922;-84
2021/07/06 02:29:42;;;;;;;2.70;1.43;;;;;;;;;;5079589;28;20409;-84
2021/07/06 02:32:08;;;;;;;1.83;1.27;;;;;;;;;;5077676;28;20424;-82
2021/07/06 02:34:34;;;;;;;2.47;1.87;;;;;;;;;;5100129;28;20465;-82
2021/07/06 02:37:00;;;;;;;2.07;1.60;;;;;;;;;;5081978;28;20463;-82
2021/07/06 02:39:26;;;;;;;5.53;2.53;;;;;;;;;;5092639;28;20401;-80
2021/07/06 02:41:52;;;;;;;5.40;1.90;;;;;;;;;;5102710;28;20424;-82
2021/07/06 02:44:18;;;;;;;2.27;1.80;;;;;;;;;;5103185;28;20431;-82
2021/07/06 02:46:44;;;;;;;2.30;1.80;;;;;;;;;;5101717;28;20464;-83
2021/07/06 02:49:10;;;;;;;4.00;1.83;;;;;;;;;;5101221;28;20418;-83
2021/07/06 02:51:36;;;;;;;2.47;1.83;;;;;;;;;;5099211;28;20451;-83
2021/07/06 02:54:03;;;;;;;2.47;1.70;;;;;;;;;;5088947;28;20444;-83
2021/07/06 02:56:29;;;;;;;2.67;1.87;;;;;;;;;;5077864;28;20429;-83
2021/07/06 02:58:55;;;;;;;2.17;1.50;;;;;;;;;;5081220;28;20920;-83
2021/07/06 03:01:21;;;;;;;8.03;2.03;;;;;;;;;;5079778;28;20425;-84
2021/07/06 03:03:47;;;;;;;2.50;1.40;;;;;;;;;;5072852;28;20449;-83
2021/07/06 03:06:13;;;;;;;4.00;2.07;;;;;;;;;;5074606;28;20828;-83
2021/07/06 03:08:39;;;;;;;9.33;2.63;;;;;;;;;;5082730;28;20429;-80
2021/07/06 03:11:05;;;;;;;2.60;2.00;;;;;;;;;;5078133;28;20435;-82
2021/07/06 03:13:31;;;;;;;5.13;1.90;;;;;;;;;;5098019;28;20852;-81
2021/07/06 03:15:58;;;;;;;4.10;2.60;;;;;;;;;;5094546;28;20440;-81
2021/07/06 03:18:24;;;;;;;2.80;1.63;;;;;;;;;;5096850;28;20418;-81
2021/07/06 03:20:50;;;;;;;2.47;1.80;;;;;;;;;;5095285;28;20396;-80
2021/07/06 03:23:16;;;;;;;2.17;1.57;;;;;;;;;;5096118;28;20428;-83
2021/07/06 03:25:44;;;;;;;5.97;1.67;;;;;;;;;;5092911;28;20464;-82
2021/07/06 03:28:11;;;;;;;5.40;2.83;;;;;;;;;;5094690;28;20435;-81
2021/07/06 03:30:37;;;;;;;2.00;1.43;;;;;;;;;;5094813;28;20407;-81
2021/07/06 03:33:04;;;;;;;2.97;2.23;;;;;;;;;;5094446;28;20448;-81
2021/07/06 03:35:30;;;;;;;2.50;1.80;;;;;;;;;;5097735;28;20404;-83
2021/07/06 03:37:57;;;;;;;2.93;2.03;;;;;;;;;;5078452;28;20790;-81
2021/07/06 03:40:23;;;;;;;3.93;1.97;;;;;;;;;;5077428;28;20758;-81
2021/07/06 03:42:49;;;;;;;2.50;1.77;;;;;;;;;;5091592;28;20511;-83
2021/07/06 03:45:16;;;;;;;3.80;1.83;;;;;;;;;;5085245;28;20463;-81
2021/07/06 03:47:42;;;;;;;6.37;2.00;;;;;;;;;;5067487;28;20497;-83
2021/07/06 03:50:10;;;;;;;4.13;1.80;;;;;;;;;;5057434;28;20459;-82
2021/07/06 03:52:37;;;;;;;3.50;1.90;;;;;;;;;;5073390;28;20409;-84
2021/07/06 03:55:03;;;;;;;3.50;1.83;;;;;;;;;;5076325;28;20780;-83
2021/07/06 03:57:29;;;;;;;4.60;1.90;;;;;;;;;;5088103;28;20439;-84
2021/07/06 03:59:59;;;;;;;3.53;1.90;;;;;;;;;;5079154;28;20911;-83
2021/07/06 04:02:25;;;;;;;4.53;2.10;;;;;;;;;;5086139;28;20461;-83
2021/07/06 04:04:51;;;;;;;2.10;1.53;;;;;;;;;;5076646;28;20432;-83
2021/07/06 04:07:17;;;;;;;2.63;1.87;;;;;;;;;;5087395;28;20435;-83
2021/07/06 04:09:44;;;;;;;4.00;1.60;;;;;;;;;;5101475;28;20407;-81
2021/07/06 04:12:10;;;;;;;4.97;1.87;;;;;;;;;;5071668;28;20433;-82
2021/07/06 04:14:36;;;;;;;6.00;2.00;;;;;;;;;;5058222;28;20496;-83
2021/07/06 04:17:02;;;;;;;4.17;2.00;;;;;;;;;;5072012;28;20450;-83
2021/07/06 04:19:28;;;;;;;2.20;1.77;;;;;;;;;;5104927;28;20408;-82
2021/07/06 04:21:54;;;;;;;5.33;1.80;;;;;;;;;;5106597;28;20436;-83
2021/07/06 04:24:20;;;;;;;5.17;1.80;;;;;;;;;;5098702;28;20634;-84
2021/07/06 04:26:46;;;;;;;3.20;1.93;;;;;;;;;;5078216;28;20463;-84
2021/07/06 04:29:12;;;;;;;5.27;2.30;;;;;;;;;;5097800;28;20409;-84
2021/07/06 04:31:38;;;;;;;4.57;2.17;;;;;;;;;;5089396;28;20424;-84
2021/07/06 04:34:04;;;;;;;2.47;1.63;;;;;;;;;;5091936;28;20523;-84
2021/07/06 04:36:31;;;;;;;3.80;2.00;;;;;;;;;;5078942;28;21176;-84
2021/07/06 04:38:58;;;;;;;4.80;1.80;;;;;;;;;;5098634;28;20491;-83
2021/07/06 04:41:24;;;;;;;4.40;2.30;;;;;;;;;;5096255;28;20411;-83
2021/07/06 04:43:50;;;;;;;2.87;1.83;;;;;;;;;;5097889;28;20438;-83
2021/07/06 04:46:16;;;;;;;5.60;1.90;;;;;;;;;;5078756;28;20448;-83
2021/07/06 04:48:42;;;;;;;2.43;1.53;;;;;;;;;;5096716;28;20408;-83
2021/07/06 04:51:10;;;;;;;5.57;1.87;;;;;;;;;;5097464;28;20396;-83
2021/07/06 04:53:38;;;;;;;5.77;1.70;;;;;;;;;;5078060;28;20545;-83
2021/07/06 04:56:04;;;;;;;1.90;1.40;;;;;;;;;;5098031;28;20412;-82
2021/07/06 04:58:30;;;;;;;2.60;1.50;;;;;;;;;;5095795;28;20924;-83
2021/07/06 05:00:58;;;;;;;4.33;1.73;;;;;;;;;;5097620;28;20415;-84
2021/07/06 05:03:24;;;;;;;5.00;1.93;;;;;;;;;;5079714;28;20518;-84
2021/07/06 05:05:50;;;;;;;3.00;2.20;;;;;;;;;;5077223;28;20455;-84
2021/07/06 05:08:16;;;;;;;2.57;1.90;;;;;;;;;;5078213;28;20447;-82
2021/07/06 05:10:43;;;;;;;4.80;1.77;;;;;;;;;;5086923;28;20428;-84
2021/07/06 05:13:09;;;;;;;4.93;2.10;;;;;;;;;;5096304;28;20470;-84
2021/07/06 05:15:35;;;;;;;2.40;1.63;;;;;;;;;;5092808;22;20503;-68
2021/07/06 05:18:01;;;;;;;2.00;1.50;;;;;;;;;;5084052;28;20865;-68
2021/07/06 05:20:27;;;;;;;4.30;1.50;;;;;;;;;;5092791;28;20403;-69
2021/07/06 05:22:53;;;;;;;2.37;1.60;;;;;;;;;;5068296;28;20952;-68
2021/07/06 05:25:19;;;;;;;3.90;1.50;;;;;;;;;;5052254;28;20433;-68
2021/07/06 05:27:45;;;;;;;2.60;1.77;;;;;;;;;;5072020;28;20431;-67
2021/07/06 05:30:11;;;;;;;5.33;1.73;;;;;;;;;;5093353;28;20435;-68
2021/07/06 05:32:38;;;;;;;3.47;1.60;;;;;;;;;;5090688;28;20446;-68
2021/07/06 05:35:05;;;;;;;3.50;1.50;;;;;;;;;;5092776;28;20483;-68
2021/07/06 05:37:33;;;;;;;3.40;2.13;;;;;;;;;;5074435;28;20424;-68
2021/07/06 05:39:59;;;;;;;8.60;2.00;;;;;;;;;;5072392;28;20870;-68
2021/07/06 05:42:25;;;;;;;2.67;1.70;;;;;;;;;;5069460;28;20499;-68
2021/07/06 05:44:51;;;;;;;3.53;1.50;;;;;;;;;;5070454;28;20428;-68
2021/07/06 05:47:17;;;;;;;4.47;2.17;;;;;;;;;;5070737;28;20393;-69
2021/07/06 05:49:43;;;;;;;2.03;1.50;;;;;;;;;;5052141;28;20409;-68
2021/07/06 05:52:09;;;;;;;3.17;1.90;;;;;;;;;;5051829;28;20397;-70
2021/07/06 05:54:35;;;;;;;3.37;2.20;;;;;;;;;;5092225;28;20408;-68
2021/07/06 05:57:01;;;;;;;3.20;1.40;;;;;;;;;;5095900;28;20525;-68
2021/07/06 05:59:27;;;;;;;2.17;1.53;;;;;;;;;;5074516;28;20476;-69
2021/07/06 06:01:53;;;;;;;6.03;2.03;;;;;;;;;;5075517;28;20396;-68
2021/07/06 06:04:19;;;;;;;4.13;1.80;;;;;;;;;;5091706;28;20475;-68
2021/07/06 06:06:46;;;;;;;4.10;1.83;;;;;;;;;;5095736;28;20443;-68
2021/07/06 06:09:13;;;;;;;2.40;1.60;;;;;;;;;;5093815;28;20435;-68
2021/07/06 06:11:39;;;;;;;2.63;1.70;;;;;;;;;;5095735;28;20400;-69
2021/07/06 06:14:05;;;;;;;6.70;2.43;;;;;;;;;;5093691;28;20430;-68
2021/07/06 06:16:31;;;;;;;11.60;2.70;;;;;;;;;;5095928;28;20787;-68
2021/07/06 06:18:57;;;;;;;7.53;1.80;;;;;;;;;;5067400;28;20442;-68
2021/07/06 06:21:24;;;;;;;3.90;1.90;;;;;;;;;;5055465;28;20440;-68
2021/07/06 06:23:50;;;;;;;5.13;2.20;;;;;;;;;;5067266;28;20440;-68
2021/07/06 06:26:16;;;;;;;2.07;1.20;;;;;;;;;;5075323;28;20505;-68
2021/07/06 06:28:42;;;;;;;7.30;2.33;;;;;;;;;;5073842;28;20440;-68
2021/07/06 06:31:08;;;;;;;5.63;2.63;;;;;;;;;;5075331;28;20397;-68
2021/07/06 06:33:34;;;;;;;3.30;1.90;;;;;;;;;;5083412;28;20786;-68
2021/07/06 06:36:00;;;;;;;2.73;1.43;;;;;;;;;;5093262;28;20792;-68
2021/07/06 06:38:26;;;;;;;3.30;1.40;;;;;;;;;;5078221;28;20957;-68
2021/07/06 06:40:52;;;;;;;3.43;1.40;;;;;;;;;;5053550;28;20918;-68
2021/07/06 06:43:18;;;;;;;2.00;1.40;;;;;;;;;;5068048;28;20430;-68
2021/07/06 06:45:48;;;;;;;3.87;1.53;;;;;;;;;;5095059;28;20505;-68
2021/07/06 06:48:14;;;;;;;2.00;1.30;;;;;;;;;;5092030;28;20477;-68
2021/07/06 06:50:40;;;;;;;3.20;1.50;;;;;;;;;;5094989;28;20404;-68
2021/07/06 06:53:06;;;;;;;3.47;1.83;;;;;;;;;;5084427;28;20422;-68
2021/07/06 06:55:32;;;;;;;2.20;1.70;;;;;;;;;;5054682;28;20460;-68
2021/07/06 06:57:58;;;;;;;2.43;1.53;;;;;;;;;;5060144;28;20431;-68
2021/07/06 07:00:24;;;;;;;6.50;1.70;;;;;;;;;;5080780;28;20504;-68
2021/07/06 07:02:53;;;;;;;2.43;1.40;;;;;;;;;;5056249;28;20428;-69
2021/07/06 07:05:19;;;;;;;1.93;1.30;;;;;;;;;;5062145;28;20543;-68
2021/07/06 07:07:45;;;;;;;3.47;1.50;;;;;;;;;;5067765;28;20451;-69
2021/07/06 07:10:12;;;;;;;2.70;1.37;;;;;;;;;;5062468;28;20445;-69
2021/07/06 07:12:40;;;;;;;3.03;1.83;;;;;;;;;;5082134;28;20781;-68
2021/07/06 07:15:07;;;;;;;3.57;1.37;;;;;;;;;;5074027;28;20931;-69
2021/07/06 07:17:34;;;;;;;2.27;1.37;;;;;;;;;;5073514;28;20785;-68
2021/07/06 07:20:00;;;;;;;2.83;1.40;;;;;;;;;;5075633;28;20455;-68
2021/07/06 07:22:26;;;;;;;2.00;1.23;;;;;;;;;;5068506;28;20519;-69
2021/07/06 07:24:52;;;;;;;3.70;1.40;;;;;;;;;;5070972;28;20454;-68
2021/07/06 07:27:18;;;;;;;2.27;1.50;;;;;;;;;;5084944;28;20497;-69
2021/07/06 07:29:44;;;;;;;2.50;1.30;;;;;;;;;;5078022;28;21002;-68
2021/07/06 07:32:10;;;;;;;4.03;1.27;;;;;;;;;;5073527;28;20443;-69
2021/07/06 07:34:36;;;;;;;3.83;1.60;;;;;;;;;;5070880;28;20431;-68
2021/07/06 07:37:03;;;;;;;1.70;1.00;;;;;;;;;;5072896;28;20420;-68
2021/07/06 07:39:29;;;;;;;2.13;1.23;;;;;;;;;;5057765;28;20464;-68
2021/07/06 07:41:55;;;;;;;1.80;1.13;;;;;;;;;;5064483;28;20416;-69
2021/07/06 07:44:21;;;;;;;2.20;1.30;;;;;;;;;;5068993;28;20432;-68
2021/07/06 07:46:47;;;;;;;2.00;1.17;;;;;;;;;;5070819;28;20509;-68
2021/07/06 07:49:13;;;;;;;4.57;1.80;;;;;;;;;;5070286;28;20440;-68
2021/07/06 07:51:39;;;;;;;4.13;1.53;;;;;;;;;;5070673;28;20432;-68
2021/07/06 07:54:05;;;;;;;3.00;1.43;;;;;;;;;;5071171;28;20427;-69
2021/07/06 07:56:31;;;;;;;4.70;1.83;;;;;;;;;;5074854;28;20419;-68
2021/07/06 07:58:57;;;;;;;3.70;1.53;;;;;;;;;;5072494;28;20447;-68
2021/07/06 08:01:23;;;;;;;6.17;1.33;;;;;;;;;;5072741;28;20758;-69
2021/07/06 08:03:49;;;;;;;6.30;1.60;;;;;;;;;;5071410;28;20928;-68
2021/07/06 08:06:16;;;;;;;2.30;1.30;;;;;;;;;;5069321;28;20884;-69
2021/07/06 08:08:42;;;;;;;3.00;1.87;;;;;;;;;;5065283;28;20450;-68
2021/07/06 08:11:08;;;;;;;5.60;2.70;;;;;;;;;;5074244;28;20769;-68
2021/07/06 08:13:34;;;;;;;6.63;1.40;;;;;;;;;;5070204;28;20572;-68
2021/07/06 08:16:00;;;;;;;2.80;1.47;;;;;;;;;;5071879;28;20428;-68
2021/07/06 08:18:26;;;;;;;2.67;1.53;;;;;;;;;;5069483;28;20440;-67
2021/07/06 08:20:52;;;;;;;8.10;1.30;;;;;;;;;;5082110;28;20433;-69
2021/07/06 08:23:18;;;;;;;3.13;1.30;;;;;;;;;;5071447;28;20500;-70
2021/07/06 08:25:45;;;;;;;2.67;1.40;;;;;;;;;;5069575;28;20502;-69
2021/07/06 08:28:11;;;;;;;3.00;1.50;;;;;;;;;;5071339;28;20420;-69
2021/07/06 08:30:39;;;;;;;2.40;1.20;;;;;;;;;;5066384;28;20432;-69
2021/07/06 08:33:05;;;;;;;4.40;1.70;;;;;;;;;;5076746;28;20964;-70
2021/07/06 08:35:31;;;;;;;1.97;1.30;;;;;;;;;;5071362;28;20420;-69
2021/07/06 08:37:57;;;;;;;2.53;1.50;;;;;;;;;;5070808;28;20435;-68
2021/07/06 08:40:23;;;;;;;1.70;1.23;;;;;;;;;;5074723;28;20432;-68
2021/07/06 08:42:50;;;;;;;3.63;1.47;;;;;;;;;;5068698;28;20415;-69
2021/07/06 08:45:16;;;;;;;2.80;1.20;;;;;;;;;;5079691;28;20587;-68
2021/07/06 08:47:45;;;;;;;3.00;1.33;;;;;;;;;;5073511;28;20440;-69
2021/07/06 08:50:12;;;;;;;1.97;1.20;;;;;;;;;;5071472;28;20444;-69
2021/07/06 08:52:40;;;;;;;1.90;1.10;;;;;;;;;;5070759;28;20431;-69
2021/07/06 08:55:07;;;;;;;3.40;1.23;;;;;;;;;;5071236;28;20763;-69
2021/07/06 08:57:33;;;;;;;3.37;1.53;;;;;;;;;;5071737;28;20810;-68
2021/07/06 08:59:59;;;;;;;2.70;1.40;;;;;;;;;;5069961;28;20490;-68
2021/07/06 09:02:25;;;;;;;2.23;1.27;;;;;;;;;;5077376;28;20514;-68
2021/07/06 09:04:52;;;;;;;3.00;1.20;;;;;;;;;;5070985;28;20416;-69
2021/07/06 09:07:19;;;;;;;2.23;1.23;;;;;;;;;;5073462;28;20413;-68
2021/07/06 09:09:45;;;;;;;3.07;1.60;;;;;;;;;;5068614;28;20452;-69
2021/07/06 09:12:12;;;;;;;3.30;1.20;;;;;;;;;;5069037;28;20521;-69
2021/07/06 09:14:49;;;;;;;1.97;1.10;;;;;;;;;;5074696;28;20472;-68
2021/07/06 09:17:16;;;;;;;2.10;1.30;;;;;;;;;;5076063;28;20512;-68
2021/07/06 09:19:44;;;;;;;1.87;1.20;;;;;;;;;;5068796;28;20457;-68
2021/07/06 09:22:14;;;;;;;2.53;1.30;;;;;;;;;;5071616;28;20424;-68
2021/07/06 09:24:41;;;;;;;2.13;1.60;;;;;;;;;;5073232;28;20425;-67
2021/07/06 09:27:26;;;;;;;12.00;1.47;;;;;;;;;;5066976;28;20492;-67
2021/07/06 09:30:04;;;;;;;2.77;1.40;;;;;;;;;;5069792;28;20978;-69
2021/07/06 09:32:30;;;;;;;2.33;1.10;;;;;;;;;;5074854;28;21076;-69
2021/07/06 09:34:56;;;;;;;3.07;1.47;;;;;;;;;;5075033;28;20432;-69
2021/07/06 09:37:22;;;;;;;1.93;1.00;;;;;;;;;;5076085;28;20455;-68
2021/07/06 09:39:48;;;;;;;2.20;1.20;;;;;;;;;;5074394;28;20887;-70
2021/07/06 09:42:17;;;;;;;1.70;1.00;;;;;;;;;;5077088;28;20546;-69
2021/07/06 09:44:43;;;;;;;2.00;1.10;;;;;;;;;;5075987;28;20516;-69
2021/07/06 09:47:10;;;;;;;2.57;1.20;;;;;;;;;;5077516;28;20435;-69
2021/07/06 09:49:57;;;;;;;3.40;1.50;;;;;;;;;;5071375;28;20547;-69
2021/07/06 09:52:24;;;;;;;2.40;1.40;;;;;;;;;;5073478;28;20416;-69
2021/07/06 09:54:51;;;;;;;4.53;1.73;;;;;;;;;;5073649;28;20435;-69
2021/07/06 09:57:31;;;;;;;1.70;0.97;;;;;;;;;;5074565;28;20484;-69
2021/07/06 09:59:57;;;;;;;2.30;1.40;;;;;;;;;;5074155;28;20507;-69
2021/07/06 10:02:24;;;;;;;1.63;1.03;;;;;;;;;;5074455;28;20503;-69
2021/07/06 10:04:55;;;;;;;3.17;1.40;;;;;;;;;;5073881;28;20443;-68
2021/07/06 10:07:22;;;;;;;2.57;1.73;;;;;;;;;;5076459;28;20444;-69
2021/07/06 10:09:48;;;;;;;6.67;1.47;;;;;;;;;;5073420;28;20588;-69
2021/07/06 10:12:15;;;;;;;3.23;1.40;;;;;;;;;;5069985;28;20428;-69
2021/07/06 10:14:42;;;;;;;3.03;2.00;;;;;;;;;;5070183;28;20497;-70
2021/07/06 10:17:08;;;;;;;2.43;1.43;;;;;;;;;;5073789;28;20423;-69
2021/07/06 10:19:34;;;;;;;2.20;1.30;;;;;;;;;;5067861;28;20452;-69
2021/07/06 10:22:00;;;;;;;2.00;1.37;;;;;;;;;;5070285;28;20424;-68
2021/07/06 10:24:27;;;;;;;2.07;1.23;;;;;;;;;;5071916;28;20427;-68
2021/07/06 10:26:58;;;;;;;1.93;1.10;;;;;;;;;;5065463;28;20547;-70
2021/07/06 10:29:34;;;;;;;2.10;1.10;;;;;;;;;;5076446;28;20481;-68
2021/07/06 10:32:00;;;;;;;1.63;0.97;;;;;;;;;;5070993;28;20408;-68
2021/07/06 10:34:28;;;;;;;2.17;1.10;;;;;;;;;;5064283;28;20412;-69
2021/07/06 10:36:55;;;;;;;2.23;1.27;;;;;;;;;;5075365;28;20464;-68
2021/07/06 10:39:50;;;;;;;2.10;1.20;;;;;;;;;;5094365;28;20503;-68
2021/07/06 10:42:16;;;;;;;2.73;1.27;;;;;;;;;;5071441;28;20416;-68
2021/07/06 10:44:42;;;;;;;2.20;0.90;;;;;;;;;;5074832;28;20651;-69
2021/07/06 10:47:32;;;;;;;2.67;1.07;;;;;;;;;;5072192;28;20471;-68
2021/07/06 10:49:58;;;;;;;2.17;1.00;;;;;;;;;;5065544;28;20490;-69
2021/07/06 10:52:35;;;;;;;2.20;1.40;;;;;;;;;;5074816;28;20489;-68
2021/07/06 10:55:21;;;;;;;2.10;1.23;;;;;;;;;;5072470;28;20428;-69
2021/07/06 10:57:49;;;;;;;1.77;1.00;;;;;;;;;;5060015;28;20499;-69
2021/07/06 11:00:15;;;;;;;1.90;1.00;;;;;;;;;;5080372;28;20517;-68
2021/07/06 11:02:41;;;;;;;1.70;0.97;;;;;;;;;;5076068;28;20436;-69
2021/07/06 11:05:07;;;;;;;2.77;1.23;;;;;;;;;;5073910;28;20456;-69
2021/07/06 11:07:40;;;;;;;1.87;0.90;;;;;;;;;;5072944;28;20417;-69
2021/07/06 11:10:07;;;;;;;1.70;1.10;;;;;;;;;;5060916;28;20456;-69
2021/07/06 11:12:34;;;;;;;2.90;1.20;;;;;;;;;;5077246;28;20443;-69
2021/07/06 11:15:01;;;;;;;2.00;1.27;;;;;;;;;;5078679;28;20864;-69
2021/07/06 11:17:31;;;;;;;1.77;0.97;;;;;;;;;;5065006;28;20417;-68
2021/07/06 11:19:59;;;;;;;1.87;1.03;;;;;;;;;;5078962;28;20478;-69
2021/07/06 11:22:38;;;;;;;2.07;1.27;;;;;;;;;;5072902;28;20599;-68
2021/07/06 11:25:20;;;;;;;2.30;1.00;;;;;;;;;;5073726;28;20416;-68
2021/07/06 11:27:58;;;;;;;2.20;1.10;;;;;;;;;;5092548;28;20503;-68
2021/07/06 11:30:25;;;;;;;2.20;1.07;;;;;;;;;;5088999;28;20432;-68
2021/07/06 11:33:10;;;;;;;1.60;0.90;;;;;;;;;;5073051;28;20411;-67
2021/07/06 11:35:40;;;;;;;2.90;1.00;;;;;;;;;;5077667;28;21082;-68
2021/07/06 11:38:09;;;;;;;2.13;1.13;;;;;;;;;;5074844;28;20436;-68
2021/07/06 11:40:38;;;;;;;1.77;1.00;;;;;;;;;;5067358;28;20425;-68
2021/07/06 11:43:04;;;;;;;1.70;0.90;;;;;;;;;;5073191;28;20420;-68
2021/07/06 11:45:30;;;;;;;1.57;0.90;;;;;;;;;;5065275;28;20456;-68
2021/07/06 11:48:03;;;;;;;2.03;0.93;;;;;;;;;;5062416;28;20416;-68
2021/07/06 11:50:31;;;;;;;2.03;1.03;;;;;;;;;;5068671;28;20425;-68
2021/07/06 11:52:58;;;;;;;1.80;1.07;;;;;;;;;;5067673;28;20446;-67
2021/07/06 11:55:24;;;;;;;1.70;1.00;;;;;;;;;;5075558;28;20428;-68
2021/07/06 11:57:54;;;;;;;2.50;1.30;;;;;;;;;;5070685;28;20452;-68
2021/07/06 12:00:21;;;;;;;2.70;0.90;;;;;;;;;;5072889;28;20416;-68
2021/07/06 12:02:47;;;;;;;2.00;0.83;;;;;;;;;;5071567;28;20805;-67
2021/07/06 12:05:14;;;;;;;1.80;1.00;;;;;;;;;;5071619;28;20449;-67
2021/07/06 12:07:40;;;;;;;1.93;1.00;;;;;;;;;;5068710;28;20434;-67
2021/07/06 12:10:09;;;;;;;1.60;0.80;;;;;;;;;;5070913;28;20467;-68
2021/07/06 12:12:36;;;;;;;1.87;0.90;;;;;;;;;;5071395;28;20428;-68
2021/07/06 12:15:02;;;;;;;2.03;1.10;;;;;;;;;;5068807;28;20489;-68
2021/07/06 12:17:29;;;;;;;1.90;0.87;;;;;;;;;;5078348;28;20459;-68
2021/07/06 12:19:56;;;;;;;1.77;1.00;;;;;;;;;;5072243;28;20935;-68
2021/07/06 12:22:29;;;;;;;2.47;1.37;;;;;;;;;;5069568;28;20977;-68
2021/07/06 12:24:56;;;;;;;2.03;1.20;;;;;;;;;;5070230;28;20784;-68
2021/07/06 12:27:39;;;;;;;2.10;1.17;;;;;;;;;;5065275;28;20428;-68
2021/07/06 12:30:05;;;;;;;2.33;1.20;;;;;;;;;;5069174;28;20511;-68
2021/07/06 12:32:31;;;;;;;1.50;0.83;;;;;;;;;;5078960;28;20419;-69
2021/07/06 12:34:58;;;;;;;2.50;1.73;;;;;;;;;;5076806;28;20423;-68
2021/07/06 12:37:25;;;;;;;1.67;1.00;;;;;;;;;;5077000;28;20424;-69
2021/07/06 12:39:53;;;;;;;1.70;0.90;;;;;;;;;;5071210;28;20433;-69
2021/07/06 12:42:20;;;;;;;1.60;0.90;;;;;;;;;;5067565;28;20460;-68
2021/07/06 12:44:48;;;;;;;1.67;0.90;;;;;;;;;;5068908;28;20667;-69
2021/07/06 12:47:22;;;;;;;1.60;1.00;;;;;;;;;;5070471;28;21029;-69
2021/07/06 12:49:58;;;;;;;1.90;0.90;;;;;;;;;;5071240;28;20444;-69
2021/07/06 12:52:25;;;;;;;1.50;0.80;;;;;;;;;;5074844;28;20420;-68
2021/07/06 12:54:51;;;;;;;1.93;1.00;;;;;;;;;;5072975;28;20781;-69
2021/07/06 12:57:31;;;;;;;2.17;0.87;;;;;;;;;;5073790;28;20705;-67
2021/07/06 13:00:09;;;;;;;1.60;0.77;;;;;;;;;;5067057;28;20440;-68
2021/07/06 13:02:35;;;;;;;2.20;0.80;;;;;;;;;;5071837;28;20424;-68
2021/07/06 13:05:01;;;;;;;6.03;1.13;;;;;;;;;;5073198;28;20547;-68
2021/07/06 13:07:29;;;;;;;3.50;1.00;;;;;;;;;;5075353;28;20420;-68
2021/07/06 13:10:09;;;;;;;2.00;1.10;;;;;;;;;;5077806;28;20472;-68
2021/07/06 13:12:35;;;;;;;1.70;0.90;;;;;;;;;;5076606;28;20550;-68
2021/07/06 13:15:01;;;;;;;5.83;1.20;;;;;;;;;;5075229;28;20436;-66
2021/07/06 13:17:32;;;;;;;2.37;0.90;;;;;;;;;;5073048;28;20778;-67
2021/07/06 13:20:04;;;;;;;2.80;1.00;;;;;;;;;;5076199;28;20448;-68
2021/07/06 13:22:30;;;;;;;1.77;1.00;;;;;;;;;;5075820;28;20424;-68
2021/07/06 13:25:00;;;;;;;2.43;0.90;;;;;;;;;;5084377;28;20477;-67
2021/07/06 13:27:33;;;;;;;1.70;0.80;;;;;;;;;;5084925;28;20980;-67
2021/07/06 13:29:59;;;;;;;2.77;0.90;;;;;;;;;;5073627;28;20435;-69
2021/07/06 13:32:26;;;;;;;1.60;0.90;;;;;;;;;;5075886;28;20923;-69
2021/07/06 13:34:52;;;;;;;1.50;0.80;;;;;;;;;;5074120;28;20800;-68
2021/07/06 13:37:18;;;;;;;2.33;0.70;;;;;;;;;;5069061;28;20455;-69
2021/07/06 13:39:44;;;;;;;1.60;0.87;;;;;;;;;;5081643;28;20974;-68
2021/07/06 13:42:10;;;;;;;1.70;0.90;;;;;;;;;;5074404;28;20424;-68
2021/07/06 13:44:37;;;;;;;2.97;1.00;;;;;;;;;;5081982;28;20433;-68
2021/07/06 13:47:13;;;;;;;2.17;1.00;;;;;;;;;;5067220;28;20516;-68
2021/07/06 13:49:39;;;;;;;2.63;1.00;;;;;;;;;;5071493;28;20455;-69
2021/07/06 13:52:05;;;;;;;1.60;0.90;;;;;;;;;;5072610;28;20436;-68
2021/07/06 13:54:36;;;;;;;3.80;0.97;;;;;;;;;;5074566;28;20416;-68
2021/07/06 13:57:05;;;;;;;2.23;1.00;;;;;;;;;;5073136;28;20432;-68
2021/07/06 13:59:32;;;;;;;1.83;1.00;;;;;;;;;;5072964;28;20450;-68
2021/07/06 14:01:58;;;;;;;1.97;1.10;;;;;;;;;;5075704;28;20431;-68
2021/07/06 14:04:24;;;;;;;1.60;0.83;;;;;;;;;;5076506;28;21265;-69
2021/07/06 14:06:50;;;;;;;2.07;0.90;;;;;;;;;;5071846;28;20462;-69
2021/07/06 14:09:18;;;;;;;3.90;1.00;;;;;;;;;;5073354;28;20845;-69
2021/07/06 14:11:44;;;;;;;1.80;0.90;;;;;;;;;;5073856;28;20430;-68
2021/07/06 14:14:10;;;;;;;2.27;1.20;;;;;;;;;;5074248;28;20429;-69
2021/07/06 14:16:36;;;;;;;2.07;1.00;;;;;;;;;;5077602;28;20507;-69
2021/07/06 14:19:02;;;;;;;2.17;0.93;;;;;;;;;;5074076;28;20559;-69
2021/07/06 14:21:28;;;;;;;2.70;0.90;;;;;;;;;;5073456;28;20416;-69
2021/07/06 14:23:54;;;;;;;5.07;1.10;;;;;;;;;;5074323;28;20421;-68
2021/07/06 14:26:20;;;;;;;2.00;0.90;;;;;;;;;;5074144;28;20936;-69
2021/07/06 14:28:50;;;;;;;2.00;1.10;;;;;;;;;;5081580;28;20452;-68
2021/07/06 14:31:17;;;;;;;2.83;1.00;;;;;;;;;;5071730;28;20417;-69
2021/07/06 14:33:44;;;;;;;2.20;0.80;;;;;;;;;;5073878;28;20408;-68
2021/07/06 14:36:10;;;;;;;2.50;0.77;;;;;;;;;;5089173;28;20412;-68
2021/07/06 14:38:36;;;;;;;1.70;0.80;;;;;;;;;;5079330;28;20456;-68
2021/07/06 14:41:03;;;;;;;2.77;0.97;;;;;;;;;;5075202;28;20909;-68
2021/07/06 14:43:29;;;;;;;1.90;1.10;;;;;;;;;;5071407;28;20428;-68